Etusivu
METAR-TAF:

METAR-TAF

Lentoasemat :

Vinton Veterans Memorial Airpark

Vinton, Iowa, Yhdysvallat

Leveyspiiri: 42-13-07N, Pituuspiiri: 092-01-33W, korkeus merenpinnasta: 258 m

Tämänhetkinen sää

Tämä raportti tehtiin 14 minuuttia sitten, kello 10.35 UTC
Tuuli 14 kn lännestä/luoteesta puuskistuen 21 kn:hen
Lämpötila -2°C
Kosteus 80%
Ilmanpaine 1020 hPa
Näkyvyys: 16.1 km
Pilvistä 1900 ft:n korkeudessa

METAR: KVTI 181035Z AUTO 29014G21KT 10SM OVC019 M02/M05 A3011 RMK AO2 T10211046

Aika: 04:49 (10:49 UTC)


TAF: puuttuu

Säähavainnot ja -ennusteet yli 4000 lentoasemalta (METAR- ja TAF-raportit).

Käytössä olevat sääasemat on merkitty karttaan keltaisilla ja punaisilla pisteillä.

Aseta hiiri pisteen päälle nähdäksesi sääaseman nimen.

Klikkaa sitten nähdäksesi säähavainnot ja -ennusteet.

Kartan vaihtaminen: klikkaa mustalla rastilla varustettuja vihreitä pisteitä, niin voit zoomata sisään; viivalla varustettua vihreää pistettä, niin voit zoomata ulos tai vihreitä nuolia, niin pääset viereisille kartoille.


METAR-TAF: